Pagina principale
METAR-TAF:

METAR-TAF

Aeroporti :

Aeroporto di Tunisi-Cartagine

Tunisi, Tunisia

latitudine: 36-50N, longitudine: 010-14E, altezza: 3 m

Osservazione

Il bollettino è stato emesso 22 minuti fa, alle 11:00 UTC
Vento 4 kt da est, variando fra nord-est e sud
Temperature 25°C
Umidità 57%
Pressione 1012 hPa
Visibilità 10 km o più
Poco nuvoloso ad un'altezza di 2600 ft

METAR: DTTA 151100Z 10004KT 050V180 9999 FEW026 25/16 Q1012 NOSIG

Ora: 12:22 (11:22 UTC)

Previsione

Il bollettino è stato emesso 5 ore e 47 minuti fa, alle 05:35 UTC
Previsione valida dal 15 alle 06 UTC al 16 alle 06 UTC
Vento 5 kt da sud-ovest
Visibilità 10 km o più
Poco nuvoloso ad un'altezza di 2000 ft
Nubi sparse ad un'altezza di 3300 ft
Probabilità 30% :
Temporaneamente
dal 15 alle 06 UTC al 15 alle 08 UTC
Visibilità: 4000 m
Nubi sparse ad un'altezza di 1000 ft
foschia

TAF: DTTA 150535Z 1506/1606 22005KT 9999 FEW020 SCT033 PROB30 TEMPO 1506/1508 4000 BR SCT010

Osservazioni e previsioni meteorologiche di più di 4000 aeroporti (messaggi METAR e TAF).

Le stazioni disponibili sono rappresentate dai dischi gialli e rossi sulla carta.

Puntare il mouse per vedere il nome della stazione.

Clicca sopra per visualizzare le osservazioni e previsioni meteorologiche.

Per cambiare la mappa : fare clic sui pulsanti verdi con una croce nera per ingrandire, il pulsante verde con un trattino per diminuire, o sulla freccia verde per le mappe adiacenti.


METAR-TAF: